Main page
METAR-TAF:

METAR-TAF

Airports :

Salt Lake City International Airport

Salt Lake City, Utah, United States

latitude: 40-46-41N, longitude: 111-58-10W, elevation: 1288 m

Current weather observation

The report was made 32 minutes ago, at 03:54 UTC
Wind 10 kt from the North
Temperature 1°C
Humidity 55%
Pressure 1025 hPa
Visibility: 16.1 km
Few clouds at a height of 6000 ft
Broken clouds at a height of 7500 ft

METAR: KSLC 250354Z 36010KT 10SM FEW060 BKN075 01/M07 A3027 RMK AO2 SLP262 T00061067

Time: 21:26 (04:26 UTC)

Forecast

The report was made 1 hour and 16 minutes ago, at 03:10 UTC
Forecast valid from 25 at 03 UTC to 26 at 06 UTC
Wind 11 kt from the North/Northwest
Visibility: 10 km
Scattered clouds at a height of 6000 ft
From 25 at 0700 UTC
Wind 6 kt from the North/Northwest
Visibility: 10 km
Few clouds at a height of 6000 ft
Scattered clouds at a height of 9000 ft

TAF: KSLC 250310Z 2503/2606 34011KT P6SM SCT060 FM250700 33006KT P6SM FEW060 SCT090

Weather observations and forecasts of more than 4000 airports (METAR and TAF reports).

The available stations are represented by yellow and red dots on the map.

Hover mouse over dot to see the name of the station.

Then click to see weather observations and forecasts.

To change the map : click on the green buttons with a black cross to zoom in, on the green button with a dash to zoom out, or on the green arrows for adjacent maps.


METAR-TAF: